sensor_id;sensor_type;location;lat;lon;timestamp;P1;durP1;ratioP1;P2;durP2;ratioP2
75894;SDS011;64573;50.328;15.014;2023-08-06T03:49:21;5.03;;;2.60;;
75894;SDS011;64573;50.328;15.014;2023-08-06T07:08:19;3.28;;;1.00;;
75894;SDS011;64573;50.328;15.014;2023-08-06T07:52:03;1.30;;;1.20;;
75894;SDS011;64573;50.328;15.014;2023-08-06T08:04:45;1.85;;;1.20;;
75894;SDS011;64573;50.328;15.014;2023-08-06T09:14:11;3.15;;;1.58;;
75894;SDS011;64573;50.328;15.014;2023-08-06T09:24:22;4.43;;;1.80;;
75894;SDS011;64573;50.328;15.014;2023-08-06T09:26:48;1.70;;;1.58;;
75894;SDS011;64573;50.328;15.014;2023-08-06T09:29:13;1.80;;;1.40;;
75894;SDS011;64573;50.328;15.014;2023-08-06T09:31:43;2.65;;;1.75;;
75894;SDS011;64573;50.328;15.014;2023-08-06T09:34:10;1.33;;;1.17;;
75894;SDS011;64573;50.328;15.014;2023-08-06T09:36:40;1.40;;;1.30;;
75894;SDS011;64573;50.328;15.014;2023-08-06T09:39:13;1.63;;;1.48;;
75894;SDS011;64573;50.328;15.014;2023-08-06T09:41:40;1.98;;;1.45;;
75894;SDS011;64573;50.328;15.014;2023-08-06T09:44:11;1.40;;;1.30;;
75894;SDS011;64573;50.328;15.014;2023-08-06T09:46:33;1.50;;;1.27;;
75894;SDS011;64573;50.328;15.014;2023-08-06T09:48:58;2.75;;;1.33;;
75894;SDS011;64573;50.328;15.014;2023-08-06T09:51:23;2.05;;;1.42;;
75894;SDS011;64573;50.328;15.014;2023-08-06T09:53:49;1.42;;;1.20;;
75894;SDS011;64573;50.328;15.014;2023-08-06T09:56:16;2.45;;;1.98;;
75894;SDS011;64573;50.328;15.014;2023-08-06T09:58:42;1.58;;;1.48;;
75894;SDS011;64573;50.328;15.014;2023-08-06T10:01:09;5.32;;;1.27;;
75894;SDS011;64573;50.328;15.014;2023-08-06T10:03:36;4.03;;;1.70;;
75894;SDS011;64573;50.328;15.014;2023-08-06T10:06:01;1.70;;;1.60;;
75894;SDS011;64573;50.328;15.014;2023-08-06T10:08:31;1.70;;;1.52;;
75894;SDS011;64573;50.328;15.014;2023-08-06T10:10:57;2.78;;;1.70;;
75894;SDS011;64573;50.328;15.014;2023-08-06T10:13:23;2.30;;;1.80;;
75894;SDS011;64573;50.328;15.014;2023-08-06T10:15:49;1.80;;;1.70;;
75894;SDS011;64573;50.328;15.014;2023-08-06T10:18:16;2.50;;;2.00;;
75894;SDS011;64573;50.328;15.014;2023-08-06T10:20:46;3.25;;;1.90;;
75894;SDS011;64573;50.328;15.014;2023-08-06T10:23:11;3.75;;;2.05;;
75894;SDS011;64573;50.328;15.014;2023-08-06T10:25:42;2.25;;;1.88;;
75894;SDS011;64573;50.328;15.014;2023-08-06T10:28:08;2.40;;;2.10;;
75894;SDS011;64573;50.328;15.014;2023-08-06T10:30:40;3.38;;;2.35;;
75894;SDS011;64573;50.328;15.014;2023-08-06T10:33:10;4.15;;;2.25;;
75894;SDS011;64573;50.328;15.014;2023-08-06T10:35:45;2.97;;;2.00;;
75894;SDS011;64573;50.328;15.014;2023-08-06T10:38:19;2.40;;;2.20;;
75894;SDS011;64573;50.328;15.014;2023-08-06T10:43:28;2.33;;;2.10;;
75894;SDS011;64573;50.328;15.014;2023-08-06T10:45:59;3.30;;;2.35;;
75894;SDS011;64573;50.328;15.014;2023-08-06T10:48:37;2.50;;;2.10;;
75894;SDS011;64573;50.328;15.014;2023-08-06T10:51:07;3.08;;;1.98;;
75894;SDS011;64573;50.328;15.014;2023-08-06T10:53:34;2.63;;;2.05;;
75894;SDS011;64573;50.328;15.014;2023-08-06T10:56:11;2.95;;;2.17;;
75894;SDS011;64573;50.328;15.014;2023-08-06T10:58:38;5.05;;;2.60;;
75894;SDS011;64573;50.328;15.014;2023-08-06T11:01:03;2.63;;;2.10;;
75894;SDS011;64573;50.328;15.014;2023-08-06T11:03:28;2.58;;;2.17;;
75894;SDS011;64573;50.328;15.014;2023-08-06T11:05:54;3.28;;;2.22;;
75894;SDS011;64573;50.328;15.014;2023-08-06T11:08:23;4.40;;;2.95;;
75894;SDS011;64573;50.328;15.014;2023-08-06T11:10:50;3.15;;;2.42;;
75894;SDS011;64573;50.328;15.014;2023-08-06T11:13:18;2.67;;;2.47;;
75894;SDS011;64573;50.328;15.014;2023-08-06T11:15:45;3.58;;;2.35;;
75894;SDS011;64573;50.328;15.014;2023-08-06T11:18:14;3.45;;;3.15;;
75894;SDS011;64573;50.328;15.014;2023-08-06T11:20:39;4.28;;;2.78;;
75894;SDS011;64573;50.328;15.014;2023-08-06T11:23:05;3.03;;;2.45;;
75894;SDS011;64573;50.328;15.014;2023-08-06T11:25:30;4.72;;;2.80;;
75894;SDS011;64573;50.328;15.014;2023-08-06T11:30:26;4.35;;;3.13;;
75894;SDS011;64573;50.328;15.014;2023-08-06T11:32:52;4.35;;;2.60;;
75894;SDS011;64573;50.328;15.014;2023-08-06T11:35:17;2.90;;;2.60;;
75894;SDS011;64573;50.328;15.014;2023-08-06T11:37:43;2.70;;;2.50;;
75894;SDS011;64573;50.328;15.014;2023-08-06T11:40:10;2.75;;;2.28;;
75894;SDS011;64573;50.328;15.014;2023-08-06T11:42:37;3.00;;;2.50;;
75894;SDS011;64573;50.328;15.014;2023-08-06T11:45:02;3.30;;;2.47;;
75894;SDS011;64573;50.328;15.014;2023-08-06T11:47:29;5.07;;;2.88;;
75894;SDS011;64573;50.328;15.014;2023-08-06T11:49:55;2.92;;;2.50;;
75894;SDS011;64573;50.328;15.014;2023-08-06T11:52:21;3.67;;;2.75;;
75894;SDS011;64573;50.328;15.014;2023-08-06T11:55:04;4.88;;;3.00;;
75894;SDS011;64573;50.328;15.014;2023-08-06T11:57:32;3.05;;;2.75;;
75894;SDS011;64573;50.328;15.014;2023-08-06T12:00:10;4.30;;;3.53;;
75894;SDS011;64573;50.328;15.014;2023-08-06T12:02:38;3.72;;;3.10;;
75894;SDS011;64573;50.328;15.014;2023-08-06T12:05:10;4.45;;;2.85;;
75894;SDS011;64573;50.328;15.014;2023-08-06T12:07:37;3.47;;;2.90;;
75894;SDS011;64573;50.328;15.014;2023-08-06T12:10:04;3.45;;;3.05;;
75894;SDS011;64573;50.328;15.014;2023-08-06T12:12:30;4.57;;;2.85;;
75894;SDS011;64573;50.328;15.014;2023-08-06T12:14:56;3.60;;;2.97;;
75894;SDS011;64573;50.328;15.014;2023-08-06T12:17:21;3.33;;;2.80;;
75894;SDS011;64573;50.328;15.014;2023-08-06T12:19:48;2.72;;;2.42;;
75894;SDS011;64573;50.328;15.014;2023-08-06T12:22:14;3.92;;;2.70;;
75894;SDS011;64573;50.328;15.014;2023-08-06T12:24:43;3.20;;;2.90;;
75894;SDS011;64573;50.328;15.014;2023-08-06T12:27:09;3.30;;;3.00;;
75894;SDS011;64573;50.328;15.014;2023-08-06T12:29:35;3.60;;;3.17;;
75894;SDS011;64573;50.328;15.014;2023-08-06T12:32:02;3.85;;;3.00;;
75894;SDS011;64573;50.328;15.014;2023-08-06T12:34:28;4.03;;;3.17;;
75894;SDS011;64573;50.328;15.014;2023-08-06T12:36:54;3.95;;;3.13;;
75894;SDS011;64573;50.328;15.014;2023-08-06T12:39:19;3.55;;;2.88;;
75894;SDS011;64573;50.328;15.014;2023-08-06T12:41:44;4.50;;;3.10;;
75894;SDS011;64573;50.328;15.014;2023-08-06T12:44:11;4.57;;;2.90;;
75894;SDS011;64573;50.328;15.014;2023-08-06T12:46:37;5.20;;;3.05;;
75894;SDS011;64573;50.328;15.014;2023-08-06T12:49:02;4.00;;;3.13;;
75894;SDS011;64573;50.328;15.014;2023-08-06T12:51:28;2.90;;;2.67;;
75894;SDS011;64573;50.328;15.014;2023-08-06T12:53:53;4.20;;;3.00;;
75894;SDS011;64573;50.328;15.014;2023-08-06T12:58:43;2.92;;;2.63;;
75894;SDS011;64573;50.328;15.014;2023-08-06T13:01:09;5.10;;;3.53;;
75894;SDS011;64573;50.328;15.014;2023-08-06T13:03:34;4.60;;;3.22;;
75894;SDS011;64573;50.328;15.014;2023-08-06T13:06:00;4.82;;;3.65;;
75894;SDS011;64573;50.328;15.014;2023-08-06T13:08:25;5.65;;;3.20;;
75894;SDS011;64573;50.328;15.014;2023-08-06T13:10:51;8.00;;;3.55;;
75894;SDS011;64573;50.328;15.014;2023-08-06T13:13:19;5.32;;;2.92;;
75894;SDS011;64573;50.328;15.014;2023-08-06T13:15:45;3.83;;;2.95;;
75894;SDS011;64573;50.328;15.014;2023-08-06T13:18:10;4.90;;;3.35;;
75894;SDS011;64573;50.328;15.014;2023-08-06T13:20:37;3.22;;;2.92;;
75894;SDS011;64573;50.328;15.014;2023-08-06T13:23:05;3.78;;;3.10;;
75894;SDS011;64573;50.328;15.014;2023-08-06T13:25:30;4.25;;;3.13;;
75894;SDS011;64573;50.328;15.014;2023-08-06T13:27:55;4.15;;;3.00;;
75894;SDS011;64573;50.328;15.014;2023-08-06T13:30:21;3.50;;;2.80;;
75894;SDS011;64573;50.328;15.014;2023-08-06T13:32:48;2.88;;;2.53;;
75894;SDS011;64573;50.328;15.014;2023-08-06T13:35:13;4.20;;;3.00;;
75894;SDS011;64573;50.328;15.014;2023-08-06T13:37:40;3.10;;;2.63;;
75894;SDS011;64573;50.328;15.014;2023-08-06T13:45:15;3.35;;;2.90;;
75894;SDS011;64573;50.328;15.014;2023-08-06T13:47:41;4.13;;;3.10;;
75894;SDS011;64573;50.328;15.014;2023-08-06T13:50:06;4.47;;;2.42;;
75894;SDS011;64573;50.328;15.014;2023-08-06T13:52:32;2.97;;;2.60;;
75894;SDS011;64573;50.328;15.014;2023-08-06T13:54:58;4.40;;;2.92;;
75894;SDS011;64573;50.328;15.014;2023-08-06T13:57:23;2.58;;;2.38;;
75894;SDS011;64573;50.328;15.014;2023-08-06T13:59:49;2.65;;;2.45;;
75894;SDS011;64573;50.328;15.014;2023-08-06T14:02:14;4.55;;;2.78;;
75894;SDS011;64573;50.328;15.014;2023-08-06T14:04:39;2.50;;;2.30;;
75894;SDS011;64573;50.328;15.014;2023-08-06T14:07:05;2.97;;;2.60;;
75894;SDS011;64573;50.328;15.014;2023-08-06T14:09:30;4.55;;;2.33;;
75894;SDS011;64573;50.328;15.014;2023-08-06T14:11:56;3.08;;;2.30;;
75894;SDS011;64573;50.328;15.014;2023-08-06T14:14:21;2.67;;;2.42;;
75894;SDS011;64573;50.328;15.014;2023-08-06T14:16:51;3.08;;;2.72;;
75894;SDS011;64573;50.328;15.014;2023-08-06T14:19:20;3.20;;;2.20;;
75894;SDS011;64573;50.328;15.014;2023-08-06T14:21:45;4.88;;;2.55;;
75894;SDS011;64573;50.328;15.014;2023-08-06T14:24:11;2.92;;;2.10;;
75894;SDS011;64573;50.328;15.014;2023-08-06T14:26:36;2.25;;;2.00;;
75894;SDS011;64573;50.328;15.014;2023-08-06T14:29:02;4.55;;;2.10;;
75894;SDS011;64573;50.328;15.014;2023-08-06T14:31:27;4.05;;;2.10;;
75894;SDS011;64573;50.328;15.014;2023-08-06T14:33:53;2.45;;;2.20;;
75894;SDS011;64573;50.328;15.014;2023-08-06T14:36:18;2.78;;;1.90;;
75894;SDS011;64573;50.328;15.014;2023-08-06T14:38:44;2.28;;;1.98;;
75894;SDS011;64573;50.328;15.014;2023-08-06T14:41:09;3.40;;;2.08;;
75894;SDS011;64573;50.328;15.014;2023-08-06T14:43:35;2.25;;;2.05;;
75894;SDS011;64573;50.328;15.014;2023-08-06T14:46:01;2.58;;;2.08;;
75894;SDS011;64573;50.328;15.014;2023-08-06T14:48:26;2.72;;;2.10;;
75894;SDS011;64573;50.328;15.014;2023-08-06T14:50:53;2.20;;;2.00;;
75894;SDS011;64573;50.328;15.014;2023-08-06T14:53:19;3.88;;;2.63;;
75894;SDS011;64573;50.328;15.014;2023-08-06T14:55:44;3.17;;;2.50;;
75894;SDS011;64573;50.328;15.014;2023-08-06T14:58:09;4.50;;;2.55;;
75894;SDS011;64573;50.328;15.014;2023-08-06T15:00:35;3.35;;;2.17;;
75894;SDS011;64573;50.328;15.014;2023-08-06T15:03:00;4.93;;;2.75;;
75894;SDS011;64573;50.328;15.014;2023-08-06T15:05:26;3.00;;;2.50;;
75894;SDS011;64573;50.328;15.014;2023-08-06T15:07:51;3.22;;;2.53;;
75894;SDS011;64573;50.328;15.014;2023-08-06T15:10:19;3.25;;;2.10;;
75894;SDS011;64573;50.328;15.014;2023-08-06T15:12:44;2.83;;;2.20;;
75894;SDS011;64573;50.328;15.014;2023-08-06T15:15:10;2.90;;;2.38;;
75894;SDS011;64573;50.328;15.014;2023-08-06T15:17:35;3.67;;;2.58;;
75894;SDS011;64573;50.328;15.014;2023-08-06T15:20:01;3.55;;;2.53;;
75894;SDS011;64573;50.328;15.014;2023-08-06T15:22:26;3.40;;;2.78;;
75894;SDS011;64573;50.328;15.014;2023-08-06T15:24:51;4.20;;;2.80;;
75894;SDS011;64573;50.328;15.014;2023-08-06T15:27:17;2.75;;;2.53;;
75894;SDS011;64573;50.328;15.014;2023-08-06T15:29:42;6.03;;;3.30;;
75894;SDS011;64573;50.328;15.014;2023-08-06T15:32:08;8.38;;;2.30;;
75894;SDS011;64573;50.328;15.014;2023-08-06T15:34:34;4.65;;;2.15;;
75894;SDS011;64573;50.328;15.014;2023-08-06T15:37:00;5.22;;;1.90;;
75894;SDS011;64573;50.328;15.014;2023-08-06T15:39:25;2.65;;;2.30;;
75894;SDS011;64573;50.328;15.014;2023-08-06T15:41:51;2.53;;;2.00;;
75894;SDS011;64573;50.328;15.014;2023-08-06T15:44:16;2.80;;;2.10;;
75894;SDS011;64573;50.328;15.014;2023-08-06T15:46:41;2.92;;;2.08;;
75894;SDS011;64573;50.328;15.014;2023-08-06T15:49:07;5.15;;;2.40;;
75894;SDS011;64573;50.328;15.014;2023-08-06T15:51:32;4.22;;;2.20;;
75894;SDS011;64573;50.328;15.014;2023-08-06T15:53:57;3.88;;;2.20;;
75894;SDS011;64573;50.328;15.014;2023-08-06T15:56:23;2.33;;;2.13;;
75894;SDS011;64573;50.328;15.014;2023-08-06T15:58:48;4.38;;;2.15;;
75894;SDS011;64573;50.328;15.014;2023-08-06T16:01:13;2.92;;;2.38;;
75894;SDS011;64573;50.328;15.014;2023-08-06T16:03:39;2.95;;;2.13;;
75894;SDS011;64573;50.328;15.014;2023-08-06T16:06:08;3.35;;;1.92;;
75894;SDS011;64573;50.328;15.014;2023-08-06T16:08:34;2.67;;;2.10;;
75894;SDS011;64573;50.328;15.014;2023-08-06T16:10:59;5.20;;;1.90;;
75894;SDS011;64573;50.328;15.014;2023-08-06T16:13:25;3.00;;;1.70;;
75894;SDS011;64573;50.328;15.014;2023-08-06T16:15:50;2.78;;;2.00;;
75894;SDS011;64573;50.328;15.014;2023-08-06T16:18:16;2.28;;;1.55;;
75894;SDS011;64573;50.328;15.014;2023-08-06T16:20:42;2.47;;;1.63;;
75894;SDS011;64573;50.328;15.014;2023-08-06T16:23:08;1.70;;;1.50;;
75894;SDS011;64573;50.328;15.014;2023-08-06T16:25:38;10.63;;;2.65;;
75894;SDS011;64573;50.328;15.014;2023-08-06T16:28:04;3.15;;;1.80;;
75894;SDS011;64573;50.328;15.014;2023-08-06T16:30:30;2.00;;;1.60;;
75894;SDS011;64573;50.328;15.014;2023-08-06T16:32:58;8.15;;;1.60;;
75894;SDS011;64573;50.328;15.014;2023-08-06T16:35:24;2.35;;;1.60;;
75894;SDS011;64573;50.328;15.014;2023-08-06T16:37:52;1.92;;;1.70;;
75894;SDS011;64573;50.328;15.014;2023-08-06T16:40:17;2.72;;;1.60;;
75894;SDS011;64573;50.328;15.014;2023-08-06T16:42:42;6.10;;;1.70;;
75894;SDS011;64573;50.328;15.014;2023-08-06T16:45:08;3.75;;;1.50;;
75894;SDS011;64573;50.328;15.014;2023-08-06T16:47:34;3.33;;;2.20;;
75894;SDS011;64573;50.328;15.014;2023-08-06T16:49:59;2.05;;;1.60;;
75894;SDS011;64573;50.328;15.014;2023-08-06T16:52:24;1.92;;;1.40;;
75894;SDS011;64573;50.328;15.014;2023-08-06T16:54:50;3.28;;;1.50;;
75894;SDS011;64573;50.328;15.014;2023-08-06T16:57:15;2.55;;;1.73;;
75894;SDS011;64573;50.328;15.014;2023-08-06T16:59:41;1.67;;;1.40;;
75894;SDS011;64573;50.328;15.014;2023-08-06T17:06:56;1.73;;;1.60;;
75894;SDS011;64573;50.328;15.014;2023-08-06T17:09:22;2.28;;;1.60;;
75894;SDS011;64573;50.328;15.014;2023-08-06T17:11:47;1.95;;;1.65;;
75894;SDS011;64573;50.328;15.014;2023-08-06T17:14:13;1.90;;;1.67;;
75894;SDS011;64573;50.328;15.014;2023-08-06T17:16:38;3.22;;;1.80;;
75894;SDS011;64573;50.328;15.014;2023-08-06T17:19:04;1.90;;;1.42;;
75894;SDS011;64573;50.328;15.014;2023-08-06T17:21:29;2.13;;;1.67;;
75894;SDS011;64573;50.328;15.014;2023-08-06T17:23:54;2.33;;;1.60;;
75894;SDS011;64573;50.328;15.014;2023-08-06T17:26:20;1.70;;;1.60;;
75894;SDS011;64573;50.328;15.014;2023-08-06T17:28:45;8.90;;;2.35;;
75894;SDS011;64573;50.328;15.014;2023-08-06T17:31:11;4.47;;;2.08;;
75894;SDS011;64573;50.328;15.014;2023-08-06T17:33:36;7.18;;;2.13;;
75894;SDS011;64573;50.328;15.014;2023-08-06T17:36:02;2.80;;;1.98;;
75894;SDS011;64573;50.328;15.014;2023-08-06T17:38:28;9.00;;;3.70;;
75894;SDS011;64573;50.328;15.014;2023-08-06T17:40:53;4.32;;;2.83;;
75894;SDS011;64573;50.328;15.014;2023-08-06T17:43:20;5.55;;;3.00;;
75894;SDS011;64573;50.328;15.014;2023-08-06T17:45:45;5.60;;;3.30;;
75894;SDS011;64573;50.328;15.014;2023-08-06T17:48:11;5.05;;;3.50;;
75894;SDS011;64573;50.328;15.014;2023-08-06T17:50:40;7.38;;;4.00;;
75894;SDS011;64573;50.328;15.014;2023-08-06T17:53:05;5.28;;;3.58;;
75894;SDS011;64573;50.328;15.014;2023-08-06T17:55:31;6.82;;;4.00;;
75894;SDS011;64573;50.328;15.014;2023-08-06T17:57:56;6.18;;;4.50;;
75894;SDS011;64573;50.328;15.014;2023-08-06T18:00:22;9.57;;;4.40;;
75894;SDS011;64573;50.328;15.014;2023-08-06T18:02:47;7.25;;;4.40;;
75894;SDS011;64573;50.328;15.014;2023-08-06T18:05:13;7.38;;;5.22;;
75894;SDS011;64573;50.328;15.014;2023-08-06T18:07:40;7.70;;;4.63;;
75894;SDS011;64573;50.328;15.014;2023-08-06T18:10:12;10.77;;;4.93;;
75894;SDS011;64573;50.328;15.014;2023-08-06T18:12:38;8.30;;;5.05;;
75894;SDS011;64573;50.328;15.014;2023-08-06T18:15:07;9.02;;;4.70;;
75894;SDS011;64573;50.328;15.014;2023-08-06T18:17:33;5.18;;;4.45;;
75894;SDS011;64573;50.328;15.014;2023-08-06T18:19:58;9.68;;;4.55;;
75894;SDS011;64573;50.328;15.014;2023-08-06T18:22:24;5.10;;;3.90;;
75894;SDS011;64573;50.328;15.014;2023-08-06T18:24:49;5.40;;;3.95;;
75894;SDS011;64573;50.328;15.014;2023-08-06T18:27:15;4.22;;;3.60;;
75894;SDS011;64573;50.328;15.014;2023-08-06T18:29:42;4.22;;;3.78;;
75894;SDS011;64573;50.328;15.014;2023-08-06T18:32:08;4.47;;;3.83;;
75894;SDS011;64573;50.328;15.014;2023-08-06T18:34:34;5.72;;;4.07;;
75894;SDS011;64573;50.328;15.014;2023-08-06T18:36:59;4.72;;;4.03;;
75894;SDS011;64573;50.328;15.014;2023-08-06T18:39:25;7.65;;;4.13;;
75894;SDS011;64573;50.328;15.014;2023-08-06T18:41:50;4.85;;;3.83;;
75894;SDS011;64573;50.328;15.014;2023-08-06T18:44:17;5.82;;;4.63;;
75894;SDS011;64573;50.328;15.014;2023-08-06T18:46:42;5.75;;;5.15;;
75894;SDS011;64573;50.328;15.014;2023-08-06T18:49:08;8.13;;;5.30;;
75894;SDS011;64573;50.328;15.014;2023-08-06T18:53:59;7.57;;;5.45;;
75894;SDS011;64573;50.328;15.014;2023-08-06T18:56:24;7.03;;;5.07;;
75894;SDS011;64573;50.328;15.014;2023-08-06T18:58:49;8.43;;;5.53;;
75894;SDS011;64573;50.328;15.014;2023-08-06T19:01:15;7.88;;;5.25;;
75894;SDS011;64573;50.328;15.014;2023-08-06T19:03:40;12.02;;;5.75;;
75894;SDS011;64573;50.328;15.014;2023-08-06T19:06:07;6.72;;;4.32;;
75894;SDS011;64573;50.328;15.014;2023-08-06T19:08:33;4.88;;;3.90;;
75894;SDS011;64573;50.328;15.014;2023-08-06T19:11:01;4.40;;;2.90;;
75894;SDS011;64573;50.328;15.014;2023-08-06T19:13:26;3.80;;;2.20;;
75894;SDS011;64573;50.328;15.014;2023-08-06T19:15:52;2.40;;;2.10;;
75894;SDS011;64573;50.328;15.014;2023-08-06T19:18:17;3.05;;;2.15;;
75894;SDS011;64573;50.328;15.014;2023-08-06T19:20:43;3.55;;;2.22;;
75894;SDS011;64573;50.328;15.014;2023-08-06T19:23:09;2.47;;;2.28;;
75894;SDS011;64573;50.328;15.014;2023-08-06T19:25:44;3.67;;;2.38;;
75894;SDS011;64573;50.328;15.014;2023-08-06T19:28:11;3.20;;;2.35;;
75894;SDS011;64573;50.328;15.014;2023-08-06T19:30:40;5.30;;;2.58;;
75894;SDS011;64573;50.328;15.014;2023-08-06T19:33:10;3.75;;;2.50;;
75894;SDS011;64573;50.328;15.014;2023-08-06T19:38:12;3.90;;;2.20;;
75894;SDS011;64573;50.328;15.014;2023-08-06T19:40:37;3.28;;;2.10;;
75894;SDS011;64573;50.328;15.014;2023-08-06T19:45:32;2.80;;;2.00;;
75894;SDS011;64573;50.328;15.014;2023-08-06T19:47:58;3.53;;;1.98;;
75894;SDS011;64573;50.328;15.014;2023-08-06T19:50:23;2.60;;;1.73;;
75894;SDS011;64573;50.328;15.014;2023-08-06T19:52:48;3.00;;;1.98;;
75894;SDS011;64573;50.328;15.014;2023-08-06T19:55:14;2.40;;;1.90;;
75894;SDS011;64573;50.328;15.014;2023-08-06T19:57:39;2.20;;;1.90;;
75894;SDS011;64573;50.328;15.014;2023-08-06T20:00:05;3.45;;;2.10;;
75894;SDS011;64573;50.328;15.014;2023-08-06T20:02:30;5.00;;;2.38;;
75894;SDS011;64573;50.328;15.014;2023-08-06T20:04:56;5.25;;;2.33;;
75894;SDS011;64573;50.328;15.014;2023-08-06T20:07:21;3.92;;;1.90;;
75894;SDS011;64573;50.328;15.014;2023-08-06T20:09:47;3.05;;;2.00;;
75894;SDS011;64573;50.328;15.014;2023-08-06T20:12:12;5.18;;;2.40;;
75894;SDS011;64573;50.328;15.014;2023-08-06T20:17:07;5.55;;;1.55;;
75894;SDS011;64573;50.328;15.014;2023-08-06T20:19:32;2.95;;;1.80;;
75894;SDS011;64573;50.328;15.014;2023-08-06T20:21:58;3.38;;;1.67;;
75894;SDS011;64573;50.328;15.014;2023-08-06T20:24:23;3.63;;;1.60;;
75894;SDS011;64573;50.328;15.014;2023-08-06T20:26:48;6.30;;;1.45;;
75894;SDS011;64573;50.328;15.014;2023-08-06T20:29:14;3.83;;;1.75;;
75894;SDS011;64573;50.328;15.014;2023-08-06T20:31:39;5.03;;;1.80;;
75894;SDS011;64573;50.328;15.014;2023-08-06T20:34:05;3.97;;;1.50;;
75894;SDS011;64573;50.328;15.014;2023-08-06T20:36:30;10.77;;;1.60;;
75894;SDS011;64573;50.328;15.014;2023-08-06T20:38:56;8.80;;;2.88;;
75894;SDS011;64573;50.328;15.014;2023-08-06T20:41:21;3.10;;;1.05;;
75894;SDS011;64573;50.328;15.014;2023-08-06T20:43:46;1.83;;;1.00;;
75894;SDS011;64573;50.328;15.014;2023-08-06T20:46:11;2.33;;;1.20;;
75894;SDS011;64573;50.328;15.014;2023-08-06T20:48:37;2.97;;;1.23;;
75894;SDS011;64573;50.328;15.014;2023-08-06T20:51:02;4.90;;;1.52;;
75894;SDS011;64573;50.328;15.014;2023-08-06T20:53:28;1.75;;;1.52;;
75894;SDS011;64573;50.328;15.014;2023-08-06T20:55:59;1.00;;;0.90;;
75894;SDS011;64573;50.328;15.014;2023-08-06T20:58:25;1.52;;;0.90;;
75894;SDS011;64573;50.328;15.014;2023-08-06T21:00:53;2.13;;;0.88;;
75894;SDS011;64573;50.328;15.014;2023-08-06T21:03:20;1.13;;;0.95;;
75894;SDS011;64573;50.328;15.014;2023-08-06T21:05:56;1.33;;;0.88;;
75894;SDS011;64573;50.328;15.014;2023-08-06T21:08:26;1.15;;;1.05;;
75894;SDS011;64573;50.328;15.014;2023-08-06T21:10:51;2.35;;;0.90;;
75894;SDS011;64573;50.328;15.014;2023-08-06T21:13:16;2.15;;;0.70;;
75894;SDS011;64573;50.328;15.014;2023-08-06T21:15:42;0.80;;;0.80;;
75894;SDS011;64573;50.328;15.014;2023-08-06T21:18:07;6.78;;;1.00;;
75894;SDS011;64573;50.328;15.014;2023-08-06T21:20:33;1.00;;;0.70;;
75894;SDS011;64573;50.328;15.014;2023-08-06T21:22:58;0.65;;;0.65;;
75894;SDS011;64573;50.328;15.014;2023-08-06T21:25:24;0.70;;;0.68;;
75894;SDS011;64573;50.328;15.014;2023-08-06T21:27:49;2.22;;;0.63;;
75894;SDS011;64573;50.328;15.014;2023-08-06T21:30:14;1.52;;;0.88;;
75894;SDS011;64573;50.328;15.014;2023-08-06T21:32:40;0.57;;;0.57;;
75894;SDS011;64573;50.328;15.014;2023-08-06T21:35:05;6.32;;;0.70;;
75894;SDS011;64573;50.328;15.014;2023-08-06T21:37:31;0.90;;;0.60;;
75894;SDS011;64573;50.328;15.014;2023-08-06T21:39:56;5.15;;;1.50;;
75894;SDS011;64573;50.328;15.014;2023-08-06T21:42:22;3.92;;;0.65;;
75894;SDS011;64573;50.328;15.014;2023-08-06T21:44:47;1.00;;;0.60;;
75894;SDS011;64573;50.328;15.014;2023-08-06T21:47:13;0.75;;;0.60;;
75894;SDS011;64573;50.328;15.014;2023-08-06T21:49:39;2.28;;;0.90;;
75894;SDS011;64573;50.328;15.014;2023-08-06T21:52:04;2.50;;;0.55;;
75894;SDS011;64573;50.328;15.014;2023-08-06T21:54:30;1.15;;;0.40;;
75894;SDS011;64573;50.328;15.014;2023-08-06T21:56:55;0.65;;;0.50;;
75894;SDS011;64573;50.328;15.014;2023-08-06T21:59:23;0.98;;;0.50;;
75894;SDS011;64573;50.328;15.014;2023-08-06T22:01:48;0.30;;;0.30;;
75894;SDS011;64573;50.328;15.014;2023-08-06T22:04:13;0.38;;;0.38;;
75894;SDS011;64573;50.328;15.014;2023-08-06T22:06:39;0.80;;;0.60;;
75894;SDS011;64573;50.328;15.014;2023-08-06T22:09:04;0.50;;;0.40;;
75894;SDS011;64573;50.328;15.014;2023-08-06T22:11:30;0.30;;;0.30;;
75894;SDS011;64573;50.328;15.014;2023-08-06T22:13:55;0.50;;;0.50;;
75894;SDS011;64573;50.328;15.014;2023-08-06T22:16:20;0.47;;;0.40;;
75894;SDS011;64573;50.328;15.014;2023-08-06T22:18:46;0.45;;;0.40;;
75894;SDS011;64573;50.328;15.014;2023-08-06T22:21:11;0.80;;;0.47;;
75894;SDS011;64573;50.328;15.014;2023-08-06T22:23:36;1.38;;;0.40;;
75894;SDS011;64573;50.328;15.014;2023-08-06T22:26:02;0.50;;;0.40;;
75894;SDS011;64573;50.328;15.014;2023-08-06T22:28:27;1.58;;;0.57;;
75894;SDS011;64573;50.328;15.014;2023-08-06T22:30:53;0.30;;;0.30;;
75894;SDS011;64573;50.328;15.014;2023-08-06T22:33:18;0.45;;;0.30;;
75894;SDS011;64573;50.328;15.014;2023-08-06T22:35:43;0.28;;;0.22;;
75894;SDS011;64573;50.328;15.014;2023-08-06T22:38:09;0.85;;;0.40;;
75894;SDS011;64573;50.328;15.014;2023-08-06T22:40:35;2.70;;;0.40;;
75894;SDS011;64573;50.328;15.014;2023-08-06T22:43:00;1.33;;;0.30;;
75894;SDS011;64573;50.328;15.014;2023-08-06T22:45:26;0.77;;;0.40;;
75894;SDS011;64573;50.328;15.014;2023-08-06T22:47:51;2.15;;;0.45;;
75894;SDS011;64573;50.328;15.014;2023-08-06T22:50:17;0.30;;;0.30;;
75894;SDS011;64573;50.328;15.014;2023-08-06T22:52:42;0.98;;;0.38;;
75894;SDS011;64573;50.328;15.014;2023-08-06T22:55:07;0.28;;;0.28;;
75894;SDS011;64573;50.328;15.014;2023-08-06T22:57:33;0.73;;;0.60;;
75894;SDS011;64573;50.328;15.014;2023-08-06T22:59:58;0.30;;;0.30;;
75894;SDS011;64573;50.328;15.014;2023-08-06T23:04:53;0.30;;;0.30;;
75894;SDS011;64573;50.328;15.014;2023-08-06T23:07:19;1.38;;;0.30;;
75894;SDS011;64573;50.328;15.014;2023-08-06T23:09:44;1.52;;;0.50;;
75894;SDS011;64573;50.328;15.014;2023-08-06T23:12:09;0.40;;;0.40;;
75894;SDS011;64573;50.328;15.014;2023-08-06T23:14:35;0.50;;;0.30;;
75894;SDS011;64573;50.328;15.014;2023-08-06T23:17:00;1.77;;;0.28;;
75894;SDS011;64573;50.328;15.014;2023-08-06T23:19:25;0.20;;;0.20;;
75894;SDS011;64573;50.328;15.014;2023-08-06T23:21:51;0.80;;;0.30;;
75894;SDS011;64573;50.328;15.014;2023-08-06T23:24:16;0.20;;;0.20;;
75894;SDS011;64573;50.328;15.014;2023-08-06T23:26:41;0.98;;;0.50;;
75894;SDS011;64573;50.328;15.014;2023-08-06T23:29:07;1.55;;;0.45;;
75894;SDS011;64573;50.328;15.014;2023-08-06T23:31:32;0.30;;;0.30;;
75894;SDS011;64573;50.328;15.014;2023-08-06T23:33:57;4.75;;;0.80;;
75894;SDS011;64573;50.328;15.014;2023-08-06T23:36:23;0.50;;;0.30;;
75894;SDS011;64573;50.328;15.014;2023-08-06T23:38:48;0.52;;;0.30;;
75894;SDS011;64573;50.328;15.014;2023-08-06T23:41:19;0.30;;;0.20;;
75894;SDS011;64573;50.328;15.014;2023-08-06T23:43:49;0.30;;;0.30;;
75894;SDS011;64573;50.328;15.014;2023-08-06T23:46:16;0.32;;;0.32;;
75894;SDS011;64573;50.328;15.014;2023-08-06T23:48:41;1.40;;;0.30;;
75894;SDS011;64573;50.328;15.014;2023-08-06T23:51:06;0.40;;;0.30;;
75894;SDS011;64573;50.328;15.014;2023-08-06T23:53:32;0.20;;;0.20;;
75894;SDS011;64573;50.328;15.014;2023-08-06T23:55:57;0.28;;;0.28;;
75894;SDS011;64573;50.328;15.014;2023-08-06T23:58:22;1.20;;;0.30;;
